sensor_id;sensor_type;location;lat;lon;timestamp;P1;durP1;ratioP1;P2;durP2;ratioP2
52450;SDS011;38366;53.176;6.540;2022-10-16T00:00:17;6.13;;;1.63;;
52450;SDS011;38366;53.176;6.540;2022-10-16T00:02:42;6.68;;;1.35;;
52450;SDS011;38366;53.176;6.540;2022-10-16T00:05:08;6.57;;;1.30;;
52450;SDS011;38366;53.176;6.540;2022-10-16T00:07:34;6.35;;;1.30;;
52450;SDS011;38366;53.176;6.540;2022-10-16T00:09:59;6.50;;;1.50;;
52450;SDS011;38366;53.176;6.540;2022-10-16T00:12:25;5.03;;;1.05;;
52450;SDS011;38366;53.176;6.540;2022-10-16T00:14:51;3.80;;;1.47;;
52450;SDS011;38366;53.176;6.540;2022-10-16T00:17:17;7.65;;;1.83;;
52450;SDS011;38366;53.176;6.540;2022-10-16T00:19:42;7.65;;;1.90;;
52450;SDS011;38366;53.176;6.540;2022-10-16T00:22:08;4.30;;;1.30;;
52450;SDS011;38366;53.176;6.540;2022-10-16T00:24:33;2.90;;;1.13;;
52450;SDS011;38366;53.176;6.540;2022-10-16T00:26:59;3.88;;;1.08;;
52450;SDS011;38366;53.176;6.540;2022-10-16T00:29:25;7.83;;;1.23;;
52450;SDS011;38366;53.176;6.540;2022-10-16T00:31:50;7.15;;;1.60;;
52450;SDS011;38366;53.176;6.540;2022-10-16T00:34:16;3.40;;;1.13;;
52450;SDS011;38366;53.176;6.540;2022-10-16T00:36:42;3.37;;;0.90;;
52450;SDS011;38366;53.176;6.540;2022-10-16T00:39:07;7.90;;;1.42;;
52450;SDS011;38366;53.176;6.540;2022-10-16T00:41:33;6.28;;;1.42;;
52450;SDS011;38366;53.176;6.540;2022-10-16T00:44:00;5.95;;;1.20;;
52450;SDS011;38366;53.176;6.540;2022-10-16T00:46:37;4.47;;;1.15;;
52450;SDS011;38366;53.176;6.540;2022-10-16T00:49:07;3.97;;;1.08;;
52450;SDS011;38366;53.176;6.540;2022-10-16T00:51:42;5.70;;;1.45;;
52450;SDS011;38366;53.176;6.540;2022-10-16T00:54:15;3.95;;;1.00;;
52450;SDS011;38366;53.176;6.540;2022-10-16T00:56:45;7.22;;;1.48;;
52450;SDS011;38366;53.176;6.540;2022-10-16T00:59:16;3.70;;;1.20;;
52450;SDS011;38366;53.176;6.540;2022-10-16T01:01:44;6.10;;;1.35;;
52450;SDS011;38366;53.176;6.540;2022-10-16T01:04:10;7.32;;;1.15;;
52450;SDS011;38366;53.176;6.540;2022-10-16T01:14:36;4.68;;;1.23;;
52450;SDS011;38366;53.176;6.540;2022-10-16T01:17:06;3.35;;;0.95;;
52450;SDS011;38366;53.176;6.540;2022-10-16T01:22:09;5.15;;;1.00;;
52450;SDS011;38366;53.176;6.540;2022-10-16T01:27:03;10.37;;;1.57;;
52450;SDS011;38366;53.176;6.540;2022-10-16T01:29:41;3.45;;;1.10;;
52450;SDS011;38366;53.176;6.540;2022-10-16T01:32:28;4.63;;;1.00;;
52450;SDS011;38366;53.176;6.540;2022-10-16T01:35:07;5.68;;;0.98;;
52450;SDS011;38366;53.176;6.540;2022-10-16T01:37:39;3.20;;;1.02;;
52450;SDS011;38366;53.176;6.540;2022-10-16T01:40:12;4.50;;;1.15;;
52450;SDS011;38366;53.176;6.540;2022-10-16T01:42:43;3.95;;;0.95;;
52450;SDS011;38366;53.176;6.540;2022-10-16T01:45:13;3.88;;;0.93;;
52450;SDS011;38366;53.176;6.540;2022-10-16T01:47:43;7.18;;;1.30;;
52450;SDS011;38366;53.176;6.540;2022-10-16T01:50:09;3.20;;;1.08;;
52450;SDS011;38366;53.176;6.540;2022-10-16T01:52:37;7.20;;;0.98;;
52450;SDS011;38366;53.176;6.540;2022-10-16T01:55:06;5.05;;;1.70;;
52450;SDS011;38366;53.176;6.540;2022-10-16T01:57:36;6.00;;;1.30;;
52450;SDS011;38366;53.176;6.540;2022-10-16T02:00:07;3.88;;;1.10;;
52450;SDS011;38366;53.176;6.540;2022-10-16T02:02:35;3.55;;;1.08;;
52450;SDS011;38366;53.176;6.540;2022-10-16T02:05:10;3.17;;;1.23;;
52450;SDS011;38366;53.176;6.540;2022-10-16T02:07:41;7.05;;;1.30;;
52450;SDS011;38366;53.176;6.540;2022-10-16T02:10:07;6.47;;;1.27;;
52450;SDS011;38366;53.176;6.540;2022-10-16T02:12:35;3.92;;;1.20;;
52450;SDS011;38366;53.176;6.540;2022-10-16T02:15:04;6.40;;;1.13;;
52450;SDS011;38366;53.176;6.540;2022-10-16T02:17:31;3.60;;;1.08;;
52450;SDS011;38366;53.176;6.540;2022-10-16T02:19:57;4.40;;;1.20;;
52450;SDS011;38366;53.176;6.540;2022-10-16T02:22:28;4.05;;;1.30;;
52450;SDS011;38366;53.176;6.540;2022-10-16T02:28:01;2.38;;;0.95;;
52450;SDS011;38366;53.176;6.540;2022-10-16T02:30:57;2.88;;;0.95;;
52450;SDS011;38366;53.176;6.540;2022-10-16T02:33:26;4.97;;;1.25;;
52450;SDS011;38366;53.176;6.540;2022-10-16T02:35:54;4.90;;;1.50;;
52450;SDS011;38366;53.176;6.540;2022-10-16T02:38:20;4.78;;;1.27;;
52450;SDS011;38366;53.176;6.540;2022-10-16T02:40:47;5.18;;;1.35;;
52450;SDS011;38366;53.176;6.540;2022-10-16T02:43:14;4.82;;;1.35;;
52450;SDS011;38366;53.176;6.540;2022-10-16T02:45:43;3.97;;;0.98;;
52450;SDS011;38366;53.176;6.540;2022-10-16T02:48:09;4.55;;;1.00;;
52450;SDS011;38366;53.176;6.540;2022-10-16T02:50:34;4.25;;;1.30;;
52450;SDS011;38366;53.176;6.540;2022-10-16T02:53:00;3.63;;;0.97;;
52450;SDS011;38366;53.176;6.540;2022-10-16T02:55:26;1.92;;;0.77;;
52450;SDS011;38366;53.176;6.540;2022-10-16T02:57:53;3.85;;;0.88;;
52450;SDS011;38366;53.176;6.540;2022-10-16T03:00:19;3.63;;;1.08;;
52450;SDS011;38366;53.176;6.540;2022-10-16T03:02:45;1.23;;;0.70;;
52450;SDS011;38366;53.176;6.540;2022-10-16T03:05:12;4.40;;;1.17;;
52450;SDS011;38366;53.176;6.540;2022-10-16T03:10:04;5.00;;;0.80;;
52450;SDS011;38366;53.176;6.540;2022-10-16T03:14:56;2.03;;;0.82;;
52450;SDS011;38366;53.176;6.540;2022-10-16T03:17:23;2.88;;;0.90;;
52450;SDS011;38366;53.176;6.540;2022-10-16T03:19:49;4.68;;;1.25;;
52450;SDS011;38366;53.176;6.540;2022-10-16T03:22:15;3.60;;;1.30;;
52450;SDS011;38366;53.176;6.540;2022-10-16T03:24:40;4.05;;;1.27;;
52450;SDS011;38366;53.176;6.540;2022-10-16T03:27:08;3.15;;;1.48;;
52450;SDS011;38366;53.176;6.540;2022-10-16T03:29:34;8.82;;;1.38;;
52450;SDS011;38366;53.176;6.540;2022-10-16T03:31:59;2.17;;;0.90;;
52450;SDS011;38366;53.176;6.540;2022-10-16T03:34:25;4.25;;;1.00;;
52450;SDS011;38366;53.176;6.540;2022-10-16T03:36:51;3.33;;;1.42;;
52450;SDS011;38366;53.176;6.540;2022-10-16T03:39:17;3.15;;;1.00;;
52450;SDS011;38366;53.176;6.540;2022-10-16T03:41:43;1.95;;;0.95;;
52450;SDS011;38366;53.176;6.540;2022-10-16T03:44:09;3.10;;;1.07;;
52450;SDS011;38366;53.176;6.540;2022-10-16T03:46:34;3.35;;;1.30;;
52450;SDS011;38366;53.176;6.540;2022-10-16T03:49:00;1.97;;;1.07;;
52450;SDS011;38366;53.176;6.540;2022-10-16T03:51:26;2.65;;;1.30;;
52450;SDS011;38366;53.176;6.540;2022-10-16T03:53:51;2.33;;;1.03;;
52450;SDS011;38366;53.176;6.540;2022-10-16T03:56:18;4.07;;;1.38;;
52450;SDS011;38366;53.176;6.540;2022-10-16T03:58:43;2.40;;;0.90;;
52450;SDS011;38366;53.176;6.540;2022-10-16T04:01:09;3.40;;;1.20;;
52450;SDS011;38366;53.176;6.540;2022-10-16T04:03:35;4.17;;;1.27;;
52450;SDS011;38366;53.176;6.540;2022-10-16T04:06:00;2.90;;;1.20;;
52450;SDS011;38366;53.176;6.540;2022-10-16T04:08:26;3.13;;;1.27;;
52450;SDS011;38366;53.176;6.540;2022-10-16T04:10:51;2.70;;;1.08;;
52450;SDS011;38366;53.176;6.540;2022-10-16T04:13:17;4.10;;;1.53;;
52450;SDS011;38366;53.176;6.540;2022-10-16T04:15:44;4.18;;;1.63;;
52450;SDS011;38366;53.176;6.540;2022-10-16T04:18:10;4.18;;;1.27;;
52450;SDS011;38366;53.176;6.540;2022-10-16T04:20:36;3.10;;;1.25;;
52450;SDS011;38366;53.176;6.540;2022-10-16T04:23:02;2.70;;;1.10;;
52450;SDS011;38366;53.176;6.540;2022-10-16T04:25:27;4.10;;;1.35;;
52450;SDS011;38366;53.176;6.540;2022-10-16T04:27:54;3.35;;;1.15;;
52450;SDS011;38366;53.176;6.540;2022-10-16T04:30:20;2.25;;;1.10;;
52450;SDS011;38366;53.176;6.540;2022-10-16T04:32:50;2.47;;;1.35;;
52450;SDS011;38366;53.176;6.540;2022-10-16T04:35:20;6.70;;;1.35;;
52450;SDS011;38366;53.176;6.540;2022-10-16T04:37:46;2.42;;;1.23;;
52450;SDS011;38366;53.176;6.540;2022-10-16T04:40:12;5.00;;;1.27;;
52450;SDS011;38366;53.176;6.540;2022-10-16T04:42:38;2.05;;;1.08;;
52450;SDS011;38366;53.176;6.540;2022-10-16T04:45:04;4.55;;;1.48;;
52450;SDS011;38366;53.176;6.540;2022-10-16T04:47:31;7.22;;;1.40;;
52450;SDS011;38366;53.176;6.540;2022-10-16T04:49:56;4.28;;;1.75;;
52450;SDS011;38366;53.176;6.540;2022-10-16T04:52:22;5.03;;;1.43;;
52450;SDS011;38366;53.176;6.540;2022-10-16T04:54:50;7.40;;;1.77;;
52450;SDS011;38366;53.176;6.540;2022-10-16T04:57:15;4.38;;;1.20;;
52450;SDS011;38366;53.176;6.540;2022-10-16T04:59:41;5.13;;;1.00;;
52450;SDS011;38366;53.176;6.540;2022-10-16T05:02:07;3.60;;;1.20;;
52450;SDS011;38366;53.176;6.540;2022-10-16T05:04:33;3.67;;;1.25;;
52450;SDS011;38366;53.176;6.540;2022-10-16T05:06:59;5.93;;;1.38;;
52450;SDS011;38366;53.176;6.540;2022-10-16T05:09:24;3.78;;;1.25;;
52450;SDS011;38366;53.176;6.540;2022-10-16T05:11:50;3.47;;;1.40;;
52450;SDS011;38366;53.176;6.540;2022-10-16T05:14:16;4.40;;;1.30;;
52450;SDS011;38366;53.176;6.540;2022-10-16T05:16:41;5.03;;;1.60;;
52450;SDS011;38366;53.176;6.540;2022-10-16T05:19:07;4.45;;;1.38;;
52450;SDS011;38366;53.176;6.540;2022-10-16T05:21:33;4.43;;;1.50;;
52450;SDS011;38366;53.176;6.540;2022-10-16T05:23:58;5.43;;;1.58;;
52450;SDS011;38366;53.176;6.540;2022-10-16T05:26:24;4.43;;;1.40;;
52450;SDS011;38366;53.176;6.540;2022-10-16T05:28:49;4.50;;;1.80;;
52450;SDS011;38366;53.176;6.540;2022-10-16T05:31:15;3.33;;;1.73;;
52450;SDS011;38366;53.176;6.540;2022-10-16T05:33:41;6.13;;;2.13;;
52450;SDS011;38366;53.176;6.540;2022-10-16T05:36:09;5.18;;;1.75;;
52450;SDS011;38366;53.176;6.540;2022-10-16T05:38:35;4.85;;;1.83;;
52450;SDS011;38366;53.176;6.540;2022-10-16T05:41:02;2.38;;;1.63;;
52450;SDS011;38366;53.176;6.540;2022-10-16T05:43:29;6.60;;;1.77;;
52450;SDS011;38366;53.176;6.540;2022-10-16T05:48:22;5.28;;;1.75;;
52450;SDS011;38366;53.176;6.540;2022-10-16T05:50:48;4.85;;;1.88;;
52450;SDS011;38366;53.176;6.540;2022-10-16T05:53:20;4.32;;;1.88;;
52450;SDS011;38366;53.176;6.540;2022-10-16T05:55:54;4.25;;;2.00;;
52450;SDS011;38366;53.176;6.540;2022-10-16T05:58:21;3.78;;;1.90;;
52450;SDS011;38366;53.176;6.540;2022-10-16T06:00:57;4.57;;;1.83;;
52450;SDS011;38366;53.176;6.540;2022-10-16T06:03:24;5.32;;;1.80;;
52450;SDS011;38366;53.176;6.540;2022-10-16T06:05:50;6.43;;;1.83;;
52450;SDS011;38366;53.176;6.540;2022-10-16T06:08:17;5.57;;;1.92;;
52450;SDS011;38366;53.176;6.540;2022-10-16T06:10:44;2.95;;;1.83;;
52450;SDS011;38366;53.176;6.540;2022-10-16T06:13:11;5.55;;;1.77;;
52450;SDS011;38366;53.176;6.540;2022-10-16T06:15:37;4.15;;;1.95;;
52450;SDS011;38366;53.176;6.540;2022-10-16T06:18:04;4.18;;;2.00;;
52450;SDS011;38366;53.176;6.540;2022-10-16T06:20:30;3.45;;;1.77;;
52450;SDS011;38366;53.176;6.540;2022-10-16T06:22:56;7.13;;;2.45;;
52450;SDS011;38366;53.176;6.540;2022-10-16T06:25:22;5.43;;;1.85;;
52450;SDS011;38366;53.176;6.540;2022-10-16T06:27:48;7.77;;;2.50;;
52450;SDS011;38366;53.176;6.540;2022-10-16T06:30:14;5.47;;;1.90;;
52450;SDS011;38366;53.176;6.540;2022-10-16T06:32:39;5.03;;;2.00;;
52450;SDS011;38366;53.176;6.540;2022-10-16T06:35:07;5.93;;;1.98;;
52450;SDS011;38366;53.176;6.540;2022-10-16T06:37:33;5.20;;;2.05;;
52450;SDS011;38366;53.176;6.540;2022-10-16T06:39:58;3.40;;;2.08;;
52450;SDS011;38366;53.176;6.540;2022-10-16T06:42:25;5.95;;;1.85;;
52450;SDS011;38366;53.176;6.540;2022-10-16T06:44:50;4.25;;;1.67;;
52450;SDS011;38366;53.176;6.540;2022-10-16T06:47:16;4.75;;;2.13;;
52450;SDS011;38366;53.176;6.540;2022-10-16T06:49:42;7.25;;;2.08;;
52450;SDS011;38366;53.176;6.540;2022-10-16T06:52:08;5.50;;;1.83;;
52450;SDS011;38366;53.176;6.540;2022-10-16T06:54:34;4.33;;;1.70;;
52450;SDS011;38366;53.176;6.540;2022-10-16T06:56:59;4.40;;;1.47;;
52450;SDS011;38366;53.176;6.540;2022-10-16T06:59:26;4.22;;;1.50;;
52450;SDS011;38366;53.176;6.540;2022-10-16T07:01:52;5.88;;;1.77;;
52450;SDS011;38366;53.176;6.540;2022-10-16T07:04:18;2.80;;;1.70;;
52450;SDS011;38366;53.176;6.540;2022-10-16T07:06:43;4.85;;;1.73;;
52450;SDS011;38366;53.176;6.540;2022-10-16T07:09:10;8.30;;;2.03;;
52450;SDS011;38366;53.176;6.540;2022-10-16T07:11:36;4.50;;;1.83;;
52450;SDS011;38366;53.176;6.540;2022-10-16T07:14:03;3.97;;;1.70;;
52450;SDS011;38366;53.176;6.540;2022-10-16T07:18:57;3.33;;;2.05;;
52450;SDS011;38366;53.176;6.540;2022-10-16T07:21:25;3.17;;;1.30;;
52450;SDS011;38366;53.176;6.540;2022-10-16T07:23:54;5.22;;;2.00;;
52450;SDS011;38366;53.176;6.540;2022-10-16T07:26:22;4.65;;;1.63;;
52450;SDS011;38366;53.176;6.540;2022-10-16T07:28:49;4.18;;;1.80;;
52450;SDS011;38366;53.176;6.540;2022-10-16T07:31:15;4.95;;;1.83;;
52450;SDS011;38366;53.176;6.540;2022-10-16T07:33:42;4.82;;;1.98;;
52450;SDS011;38366;53.176;6.540;2022-10-16T07:36:09;6.35;;;2.28;;
52450;SDS011;38366;53.176;6.540;2022-10-16T07:38:36;6.47;;;1.80;;
52450;SDS011;38366;53.176;6.540;2022-10-16T07:41:03;2.60;;;1.67;;
52450;SDS011;38366;53.176;6.540;2022-10-16T07:43:31;3.85;;;1.73;;
52450;SDS011;38366;53.176;6.540;2022-10-16T07:48:24;5.93;;;1.92;;
52450;SDS011;38366;53.176;6.540;2022-10-16T07:50:52;2.97;;;1.92;;
52450;SDS011;38366;53.176;6.540;2022-10-16T07:53:17;3.30;;;1.70;;
52450;SDS011;38366;53.176;6.540;2022-10-16T07:55:43;5.45;;;1.77;;
52450;SDS011;38366;53.176;6.540;2022-10-16T07:58:09;5.00;;;2.05;;
52450;SDS011;38366;53.176;6.540;2022-10-16T08:00:35;6.00;;;2.00;;
52450;SDS011;38366;53.176;6.540;2022-10-16T08:03:01;3.50;;;1.60;;
52450;SDS011;38366;53.176;6.540;2022-10-16T08:05:28;3.35;;;1.70;;
52450;SDS011;38366;53.176;6.540;2022-10-16T08:07:54;9.90;;;2.03;;
52450;SDS011;38366;53.176;6.540;2022-10-16T08:10:22;6.32;;;1.70;;
52450;SDS011;38366;53.176;6.540;2022-10-16T08:12:49;4.15;;;1.67;;
52450;SDS011;38366;53.176;6.540;2022-10-16T08:15:16;5.05;;;1.38;;
52450;SDS011;38366;53.176;6.540;2022-10-16T08:20:08;3.60;;;1.42;;
52450;SDS011;38366;53.176;6.540;2022-10-16T08:24:59;5.15;;;1.38;;
52450;SDS011;38366;53.176;6.540;2022-10-16T08:27:30;2.30;;;1.10;;
52450;SDS011;38366;53.176;6.540;2022-10-16T08:29:57;3.88;;;1.20;;
52450;SDS011;38366;53.176;6.540;2022-10-16T08:32:22;3.63;;;1.30;;
52450;SDS011;38366;53.176;6.540;2022-10-16T08:34:48;4.13;;;1.13;;
52450;SDS011;38366;53.176;6.540;2022-10-16T08:37:14;3.67;;;1.15;;
52450;SDS011;38366;53.176;6.540;2022-10-16T08:39:40;4.20;;;1.02;;
52450;SDS011;38366;53.176;6.540;2022-10-16T08:42:08;4.20;;;1.13;;
52450;SDS011;38366;53.176;6.540;2022-10-16T08:50:32;3.33;;;0.90;;
52450;SDS011;38366;53.176;6.540;2022-10-16T08:53:03;3.80;;;0.90;;
52450;SDS011;38366;53.176;6.540;2022-10-16T08:58:10;3.70;;;0.80;;
52450;SDS011;38366;53.176;6.540;2022-10-16T09:00:44;6.93;;;2.03;;
52450;SDS011;38366;53.176;6.540;2022-10-16T09:08:31;2.15;;;0.70;;
52450;SDS011;38366;53.176;6.540;2022-10-16T09:17:04;6.40;;;1.30;;
52450;SDS011;38366;53.176;6.540;2022-10-16T09:19:49;5.88;;;1.25;;
52450;SDS011;38366;53.176;6.540;2022-10-16T09:22:30;3.15;;;0.85;;
52450;SDS011;38366;53.176;6.540;2022-10-16T09:24:59;6.03;;;1.48;;
52450;SDS011;38366;53.176;6.540;2022-10-16T09:27:35;7.50;;;1.20;;
52450;SDS011;38366;53.176;6.540;2022-10-16T09:33:04;6.45;;;1.05;;
52450;SDS011;38366;53.176;6.540;2022-10-16T09:38:05;7.80;;;1.38;;
52450;SDS011;38366;53.176;6.540;2022-10-16T09:40:33;7.95;;;1.38;;
52450;SDS011;38366;53.176;6.540;2022-10-16T09:43:25;5.28;;;1.00;;
52450;SDS011;38366;53.176;6.540;2022-10-16T09:46:04;8.02;;;1.40;;
52450;SDS011;38366;53.176;6.540;2022-10-16T09:48:46;4.70;;;1.23;;
52450;SDS011;38366;53.176;6.540;2022-10-16T09:51:17;6.43;;;1.52;;
52450;SDS011;38366;53.176;6.540;2022-10-16T09:53:46;9.60;;;1.50;;
52450;SDS011;38366;53.176;6.540;2022-10-16T09:56:20;7.35;;;1.80;;
52450;SDS011;38366;53.176;6.540;2022-10-16T09:58:52;8.48;;;1.58;;
52450;SDS011;38366;53.176;6.540;2022-10-16T10:01:21;8.45;;;1.50;;
52450;SDS011;38366;53.176;6.540;2022-10-16T10:03:50;7.65;;;1.75;;
52450;SDS011;38366;53.176;6.540;2022-10-16T10:06:26;8.95;;;1.92;;
52450;SDS011;38366;53.176;6.540;2022-10-16T10:14:24;8.48;;;1.65;;
52450;SDS011;38366;53.176;6.540;2022-10-16T10:17:02;8.25;;;1.55;;
52450;SDS011;38366;53.176;6.540;2022-10-16T10:30:29;8.02;;;1.50;;
52450;SDS011;38366;53.176;6.540;2022-10-16T10:46:56;7.90;;;1.48;;
52450;SDS011;38366;53.176;6.540;2022-10-16T10:55:02;8.15;;;1.40;;
52450;SDS011;38366;53.176;6.540;2022-10-16T10:57:55;9.40;;;1.50;;
52450;SDS011;38366;53.176;6.540;2022-10-16T11:03:29;8.15;;;1.45;;
52450;SDS011;38366;53.176;6.540;2022-10-16T11:05:57;5.00;;;1.48;;
52450;SDS011;38366;53.176;6.540;2022-10-16T11:08:35;5.93;;;1.45;;
52450;SDS011;38366;53.176;6.540;2022-10-16T11:14:18;7.22;;;1.33;;
52450;SDS011;38366;53.176;6.540;2022-10-16T11:16:57;9.18;;;1.70;;
52450;SDS011;38366;53.176;6.540;2022-10-16T11:19:44;10.65;;;1.80;;
52450;SDS011;38366;53.176;6.540;2022-10-16T11:22:36;8.15;;;1.40;;
52450;SDS011;38366;53.176;6.540;2022-10-16T11:27:56;8.98;;;1.58;;
52450;SDS011;38366;53.176;6.540;2022-10-16T11:30:46;7.57;;;1.38;;
52450;SDS011;38366;53.176;6.540;2022-10-16T11:33:22;11.23;;;1.87;;
52450;SDS011;38366;53.176;6.540;2022-10-16T11:49:46;7.90;;;1.45;;
52450;SDS011;38366;53.176;6.540;2022-10-16T11:57:35;5.38;;;1.20;;
52450;SDS011;38366;53.176;6.540;2022-10-16T12:08:20;7.82;;;1.63;;
52450;SDS011;38366;53.176;6.540;2022-10-16T12:13:28;7.97;;;1.38;;
52450;SDS011;38366;53.176;6.540;2022-10-16T12:18:36;8.02;;;1.42;;
52450;SDS011;38366;53.176;6.540;2022-10-16T12:21:03;7.30;;;1.63;;
52450;SDS011;38366;53.176;6.540;2022-10-16T12:23:52;5.90;;;1.27;;
52450;SDS011;38366;53.176;6.540;2022-10-16T12:26:38;7.32;;;1.48;;
52450;SDS011;38366;53.176;6.540;2022-10-16T12:31:39;7.75;;;1.50;;
52450;SDS011;38366;53.176;6.540;2022-10-16T12:36:56;8.00;;;1.33;;
52450;SDS011;38366;53.176;6.540;2022-10-16T12:39:48;9.00;;;1.58;;
52450;SDS011;38366;53.176;6.540;2022-10-16T12:42:33;7.20;;;1.42;;
52450;SDS011;38366;53.176;6.540;2022-10-16T12:45:00;8.20;;;1.45;;
52450;SDS011;38366;53.176;6.540;2022-10-16T12:49:55;7.70;;;1.50;;
52450;SDS011;38366;53.176;6.540;2022-10-16T12:52:28;6.60;;;1.75;;
52450;SDS011;38366;53.176;6.540;2022-10-16T12:55:04;7.15;;;1.65;;
52450;SDS011;38366;53.176;6.540;2022-10-16T13:03:43;7.80;;;1.40;;
52450;SDS011;38366;53.176;6.540;2022-10-16T13:17:42;7.95;;;1.45;;
52450;SDS011;38366;53.176;6.540;2022-10-16T13:25:44;7.38;;;1.48;;
52450;SDS011;38366;53.176;6.540;2022-10-16T13:28:21;8.00;;;1.80;;
52450;SDS011;38366;53.176;6.540;2022-10-16T13:30:53;9.35;;;1.83;;
52450;SDS011;38366;53.176;6.540;2022-10-16T13:33:27;9.20;;;1.52;;
52450;SDS011;38366;53.176;6.540;2022-10-16T13:35:56;9.88;;;1.67;;
52450;SDS011;38366;53.176;6.540;2022-10-16T13:38:33;9.70;;;1.73;;
52450;SDS011;38366;53.176;6.540;2022-10-16T13:41:04;8.85;;;1.77;;
52450;SDS011;38366;53.176;6.540;2022-10-16T13:49:00;8.82;;;1.63;;
52450;SDS011;38366;53.176;6.540;2022-10-16T13:51:28;9.00;;;1.67;;
52450;SDS011;38366;53.176;6.540;2022-10-16T13:53:55;6.18;;;1.10;;
52450;SDS011;38366;53.176;6.540;2022-10-16T13:56:22;10.23;;;1.90;;
52450;SDS011;38366;53.176;6.540;2022-10-16T13:59:02;8.60;;;1.80;;
52450;SDS011;38366;53.176;6.540;2022-10-16T14:01:52;14.00;;;1.50;;
52450;SDS011;38366;53.176;6.540;2022-10-16T14:04:20;8.60;;;1.58;;
52450;SDS011;38366;53.176;6.540;2022-10-16T14:06:48;8.93;;;1.60;;
52450;SDS011;38366;53.176;6.540;2022-10-16T14:09:23;8.57;;;1.70;;
52450;SDS011;38366;53.176;6.540;2022-10-16T14:12:01;9.85;;;1.60;;
52450;SDS011;38366;53.176;6.540;2022-10-16T14:14:34;8.75;;;1.50;;
52450;SDS011;38366;53.176;6.540;2022-10-16T14:17:14;8.35;;;1.38;;
52450;SDS011;38366;53.176;6.540;2022-10-16T14:19:48;8.02;;;1.80;;
52450;SDS011;38366;53.176;6.540;2022-10-16T14:22:26;8.93;;;1.42;;
52450;SDS011;38366;53.176;6.540;2022-10-16T14:30:25;7.72;;;1.58;;
52450;SDS011;38366;53.176;6.540;2022-10-16T14:32:53;10.85;;;1.98;;
52450;SDS011;38366;53.176;6.540;2022-10-16T14:35:32;9.15;;;1.55;;
52450;SDS011;38366;53.176;6.540;2022-10-16T14:38:01;9.77;;;1.98;;
52450;SDS011;38366;53.176;6.540;2022-10-16T14:40:29;12.25;;;1.83;;
52450;SDS011;38366;53.176;6.540;2022-10-16T14:42:57;8.10;;;1.65;;
52450;SDS011;38366;53.176;6.540;2022-10-16T14:45:26;9.02;;;1.70;;
52450;SDS011;38366;53.176;6.540;2022-10-16T14:47:56;8.88;;;1.98;;
52450;SDS011;38366;53.176;6.540;2022-10-16T14:50:23;7.07;;;1.35;;
52450;SDS011;38366;53.176;6.540;2022-10-16T14:52:49;7.13;;;1.30;;
52450;SDS011;38366;53.176;6.540;2022-10-16T14:55:15;7.00;;;1.27;;
52450;SDS011;38366;53.176;6.540;2022-10-16T14:57:41;9.90;;;1.77;;
52450;SDS011;38366;53.176;6.540;2022-10-16T15:00:10;10.45;;;1.60;;
52450;SDS011;38366;53.176;6.540;2022-10-16T15:02:47;9.50;;;1.35;;
52450;SDS011;38366;53.176;6.540;2022-10-16T15:05:24;8.98;;;2.00;;
52450;SDS011;38366;53.176;6.540;2022-10-16T15:07:51;8.85;;;1.48;;
52450;SDS011;38366;53.176;6.540;2022-10-16T15:10:18;10.10;;;1.45;;
52450;SDS011;38366;53.176;6.540;2022-10-16T15:12:46;7.80;;;1.80;;
52450;SDS011;38366;53.176;6.540;2022-10-16T15:18:01;8.15;;;1.50;;
52450;SDS011;38366;53.176;6.540;2022-10-16T15:20:28;5.10;;;1.40;;
52450;SDS011;38366;53.176;6.540;2022-10-16T15:23:08;6.43;;;2.00;;
52450;SDS011;38366;53.176;6.540;2022-10-16T15:25:52;7.68;;;1.40;;
52450;SDS011;38366;53.176;6.540;2022-10-16T15:28:20;8.50;;;1.42;;
52450;SDS011;38366;53.176;6.540;2022-10-16T15:30:49;8.70;;;1.42;;
52450;SDS011;38366;53.176;6.540;2022-10-16T15:33:17;6.97;;;1.30;;
52450;SDS011;38366;53.176;6.540;2022-10-16T15:35:47;11.68;;;1.40;;
52450;SDS011;38366;53.176;6.540;2022-10-16T15:38:15;7.18;;;1.30;;
52450;SDS011;38366;53.176;6.540;2022-10-16T15:40:41;7.88;;;1.48;;
52450;SDS011;38366;53.176;6.540;2022-10-16T15:43:07;5.93;;;1.20;;
52450;SDS011;38366;53.176;6.540;2022-10-16T15:45:33;7.43;;;1.30;;
52450;SDS011;38366;53.176;6.540;2022-10-16T15:48:00;8.02;;;1.45;;
52450;SDS011;38366;53.176;6.540;2022-10-16T15:50:25;8.57;;;1.35;;
52450;SDS011;38366;53.176;6.540;2022-10-16T15:52:51;8.07;;;1.40;;
52450;SDS011;38366;53.176;6.540;2022-10-16T15:55:17;11.65;;;1.50;;
52450;SDS011;38366;53.176;6.540;2022-10-16T15:57:44;6.70;;;1.40;;
52450;SDS011;38366;53.176;6.540;2022-10-16T16:00:11;7.68;;;1.60;;
52450;SDS011;38366;53.176;6.540;2022-10-16T16:02:39;8.05;;;1.83;;
52450;SDS011;38366;53.176;6.540;2022-10-16T16:05:11;6.30;;;1.20;;
52450;SDS011;38366;53.176;6.540;2022-10-16T16:11:25;8.85;;;1.58;;
52450;SDS011;38366;53.176;6.540;2022-10-16T16:13:51;9.10;;;1.98;;
52450;SDS011;38366;53.176;6.540;2022-10-16T16:16:25;13.20;;;1.70;;
52450;SDS011;38366;53.176;6.540;2022-10-16T16:19:10;8.57;;;1.30;;
52450;SDS011;38366;53.176;6.540;2022-10-16T16:21:36;8.32;;;1.25;;
52450;SDS011;38366;53.176;6.540;2022-10-16T16:24:02;8.70;;;1.58;;
52450;SDS011;38366;53.176;6.540;2022-10-16T16:26:33;13.40;;;2.33;;
52450;SDS011;38366;53.176;6.540;2022-10-16T16:29:02;7.78;;;1.80;;
52450;SDS011;38366;53.176;6.540;2022-10-16T16:31:29;14.00;;;2.38;;
52450;SDS011;38366;53.176;6.540;2022-10-16T16:33:56;6.72;;;1.77;;
52450;SDS011;38366;53.176;6.540;2022-10-16T16:36:23;7.95;;;1.75;;
52450;SDS011;38366;53.176;6.540;2022-10-16T16:38:49;11.63;;;2.78;;
52450;SDS011;38366;53.176;6.540;2022-10-16T16:43:46;12.70;;;3.40;;
52450;SDS011;38366;53.176;6.540;2022-10-16T16:48:38;9.90;;;3.20;;
52450;SDS011;38366;53.176;6.540;2022-10-16T16:51:05;15.43;;;3.85;;
52450;SDS011;38366;53.176;6.540;2022-10-16T16:53:35;10.80;;;4.47;;
52450;SDS011;38366;53.176;6.540;2022-10-16T16:56:04;13.38;;;5.50;;
52450;SDS011;38366;53.176;6.540;2022-10-16T16:58:31;12.40;;;4.60;;
52450;SDS011;38366;53.176;6.540;2022-10-16T17:00:57;16.00;;;5.18;;
52450;SDS011;38366;53.176;6.540;2022-10-16T17:06:14;12.25;;;5.88;;
52450;SDS011;38366;53.176;6.540;2022-10-16T17:08:41;17.67;;;6.38;;
52450;SDS011;38366;53.176;6.540;2022-10-16T17:11:11;13.02;;;5.15;;
52450;SDS011;38366;53.176;6.540;2022-10-16T17:13:38;12.30;;;4.35;;
52450;SDS011;38366;53.176;6.540;2022-10-16T17:16:05;12.02;;;4.40;;
52450;SDS011;38366;53.176;6.540;2022-10-16T17:18:31;29.02;;;4.68;;
52450;SDS011;38366;53.176;6.540;2022-10-16T17:23:30;18.45;;;8.40;;
52450;SDS011;38366;53.176;6.540;2022-10-16T17:25:56;20.83;;;5.95;;
52450;SDS011;38366;53.176;6.540;2022-10-16T17:28:27;14.80;;;6.47;;
52450;SDS011;38366;53.176;6.540;2022-10-16T17:30:53;22.08;;;11.05;;
52450;SDS011;38366;53.176;6.540;2022-10-16T17:33:22;22.67;;;11.10;;
52450;SDS011;38366;53.176;6.540;2022-10-16T17:35:47;16.85;;;6.63;;
52450;SDS011;38366;53.176;6.540;2022-10-16T17:38:13;18.60;;;6.22;;
52450;SDS011;38366;53.176;6.540;2022-10-16T17:40:40;13.05;;;4.93;;
52450;SDS011;38366;53.176;6.540;2022-10-16T17:43:07;13.70;;;4.90;;
52450;SDS011;38366;53.176;6.540;2022-10-16T17:45:36;10.85;;;4.55;;
52450;SDS011;38366;53.176;6.540;2022-10-16T17:48:03;12.00;;;3.67;;
52450;SDS011;38366;53.176;6.540;2022-10-16T17:50:29;9.25;;;2.13;;
52450;SDS011;38366;53.176;6.540;2022-10-16T17:52:55;10.10;;;1.80;;
52450;SDS011;38366;53.176;6.540;2022-10-16T17:55:20;14.15;;;2.40;;
52450;SDS011;38366;53.176;6.540;2022-10-16T17:57:46;10.80;;;2.30;;
52450;SDS011;38366;53.176;6.540;2022-10-16T18:00:12;9.25;;;1.67;;
52450;SDS011;38366;53.176;6.540;2022-10-16T18:02:37;12.57;;;1.85;;
52450;SDS011;38366;53.176;6.540;2022-10-16T18:05:07;9.38;;;2.13;;
52450;SDS011;38366;53.176;6.540;2022-10-16T18:07:33;13.43;;;3.90;;
52450;SDS011;38366;53.176;6.540;2022-10-16T18:09:59;10.13;;;3.25;;